Aérodrome :
LOGIN :

S'inscrire | Disclaimer

   EN    FR    IT 

 










Légende :    VFR   VFR Marginal   IFR   IFR Intensif   IFR Très Intensif
Visi : 
Plafond : 
>= 8 km
>= 3000ft
5 à 8 km
1000 à 3000 ft
1500m à 5 km
500 à 1000 ft
800 à 1500m
200 à 500 ft
< 800m
< 200 ft
Symboles :   Orages  Brouillard  Fortes neiges  Fortes précipitations  Vent > 20 kt
SIGMETs :   Divers  Orages  Givrage  Turbulence  Onde Orograph.  Cendres Volcan.







- Altitude de l'aérodrome : 308 ft
- Code IATA : MHG


EDFM - Mannheim-City

DERNIER METAR :
  • 261150Z 35006KT 290V040 9999 BKN035 21/13 Q1010

METARs EXPIRÉS :
  • 261120Z 34004KT 310V030 9999 BKN035 19/13 Q1010
  • 261050Z 29009KT 9999 BKN032 19/12 Q1010
  • 261020Z 30007KT 230V360 9999 BKN029 BKN041 19/13 Q1010
  • 260950Z 30011KT 260V330 9999 SCT026 BKN037 BKN071 18/13 Q1010
  • 260920Z 28011KT 260V320 9999 BKN022 BKN078 17/14 Q1010

TAF TAF EDFM
Valide du 26 à 12h jusqu'au 26 à 21h UTC


261100Z 2612/2621 28009KT 9999 FEW025 SCT040
BECMG 2617/2620 21004KT
Pas de NOTAMs connus pour ce terrain.



MET'MAP, la Météo Aéronautique d'un coup d'oeil ! - Copyright ORBIFLY Décembre 2007 - Disclaimer

ORBIFLY MET'MAP TEAM :

Programmation & Développement : Alexandra Zaïnal
Conception & Développement : Baudouin d'Aumeries
Co-Programmation & Développement : Marc-Olivier Méhu
Soutien technique & logistique : Manuel Goepfert

Contact : metmap@orbifly.com




SOURCES & CREDITS :

   NOAA